Page Municipal Airport
KPGA : rendu visible

Aérodrome :











RETROUVEZ-NOUS SUR...

 
LOGIN :

S'inscrire | Disclaimer

   EN    FR    IT 

 









Légende :    VFR   VFR Marginal   IFR   IFR Intensif   IFR Très Intensif
Visi : 
Plafond : 
>= 8 km
>= 3000ft
5 à 8 km
1000 à 3000 ft
1500m à 5 km
500 à 1000 ft
800 à 1500m
200 à 500 ft
< 800m
< 200 ft
Symboles :   Orages  Brouillard  Fortes neiges  Fortes précipitations  Vent > 20 kt






- Altitude de l'aérodrome : 4316 ft


KPGA - Page Municipal

DERNIER METAR :
  • 201653Z AUTO 17011G20KT 10SM -RA BKN050 OVC065 12/06 A2963 RMK AO2 RAB52 SLP003 P0000 T01170061 TSNO

METARs EXPIRÉS :
  • 201553Z AUTO 16004KT 10SM SCT060 BKN090 11/07 A2961 RMK AO2 RAE16 SLP998 P0000 T01060067 TSNO
  • 201453Z AUTO 00000KT 10SM -RA BKN060 BKN070 OVC120 08/07 A2961 RMK AO2 RAB46 SLP002 P0000 60000 T00830067 53008 TSNO

TAF KPGA
Valide du 20 à 12h jusqu'au 21 à 12h UTC


201139Z 2012/2112 18008KT 6SM -SHRA SCT040 OVC050
FM201800 19012G18KT P6SM VCSH SCT050 OVC080
FM210100 17010G20KT 6SM -SHRA BKN030 OVC050
FM210500 VRB05KT P6SM BKN050



MET'MAP, la Météo Aéronautique d'un coup d'oeil ! - Copyright ORBIFLY Décembre 2007 - Disclaimer

ORBIFLY MET'MAP TEAM :

Programmation & Développement : Alexandra Zaïnal
Conception & Développement : Baudouin d'Aumeries
Co-Programmation & Développement : Marc-Olivier Méhu
Soutien technique & logistique : Manuel Goepfert

Contact : metmap@orbifly.com




SOURCES & CREDITS :

   NOAA       Earth
Advisory